OSOK1: Oswego hwy 160

                                SHEF ID:       OSOK1     Oswego hwy 160
STATION TYPE:

PRECIP STAGE RIV-FLOW VOLTAGE BAT-LOAD
in ft cfs volt volt
Ccp-Rev Ccp-Rev Ccp-Rev Ccp-Rev Ccp-Rev
(America/Chicago)
02/18 00:00 0.00 12.30 2963 12.79 12.51
02/18 01:00 0.00 12.23 2890 12.77 12.50
02/18 02:00 0.00 12.17 2829 12.76 12.48
02/18 03:00 0.00 12.11 2767 12.74 12.46
02/18 04:00 0.00 12.06 2717 12.72 12.44
02/18 05:00 0.00 11.99 2647 12.70 12.43
02/18 06:00 0.00 11.95 2610 12.68 12.40
02/18 07:00 0.00 11.90 2564 12.66 12.40
02/18 08:00 0.00 11.85 2518 12.86 12.50
02/18 09:00 0.00 11.80 2473 14.17 13.50
02/18 10:00 0.00 11.74 2418 14.05 13.33
02/18 11:00 0.00 11.70 2382 14.03 13.25
02/18 12:00 0.00 11.65 2338 13.66 13.13
02/18 13:00 0.00 11.61 2302 13.56 13.06
02/18 14:00 0.00 11.57 2267 13.41 13.03
02/18 15:00 0.00 11.52 2223 13.35 12.95
02/18 16:00 0.00 11.49 2197 13.44 12.90
02/18 17:00 0.00 11.45 2162 13.57 12.96
02/18 18:00 0.00 11.42 2136 13.10 12.89
02/18 19:00 0.00 11.38 2101 12.92 12.68
02/18 20:00 0.00 11.37 2093 12.85 12.60
02/18 21:00 0.00 11.34 2067 12.82 12.56
02/18 22:00 0.00 11.31 2041 12.80 12.53
02/18 23:00 0.00 11.29 2024 12.78 12.52
Data processed at Thu 19Feb2026 05:50 GMT

NOTICE: If you are parsing this page

Please convert to using our Data API. Starting early 2026 we will be migrating to: https://water.usace.army.mil with modern pages rendered in JavaScript. When this migration completes you will no longer be able to scrape this page! CWMSDataAPI (CDA)

Timeseries IDs (TSIDs)

TSIDs used from left to right in the data table
OSWN.Precip-Inc.Total.1Hour.1Hour.Ccp-Rev
OSWN.Stage.Inst.1Hour.0.Ccp-Rev
OSWN.Flow.Inst.1Hour.0.Ccp-Rev
OSWN.Volt-Battery.Inst.1Hour.0.Ccp-Rev
OSWN.Volt-Battery Load.Inst.1Hour.0.Ccp-Rev

                            

All information presented herein is the property of the government of the United States of America and may be revised or deleted at any time without prior notice. Dissemination of this information without the expressed written consent of the Public Affairs Office, Tulsa District U.S. Army Corps of Engineers is strictly prohibited. These data are gathered electronically and, as presented, have NOT undergone any form of quality control. These data are NOT guaranteed to be valid or correct.